sensor_id;sensor_type;location;lat;lon;timestamp;temperature;humidity
5346;DHT22;2695;49.444;11.054;2023-08-17T00:01:19;24.20;99.90
5346;DHT22;2695;49.444;11.054;2023-08-17T00:03:47;24.10;99.90
5346;DHT22;2695;49.444;11.054;2023-08-17T00:06:16;24.20;99.90
5346;DHT22;2695;49.444;11.054;2023-08-17T00:08:44;24.60;99.90
5346;DHT22;2695;49.444;11.054;2023-08-17T00:11:12;24.20;99.90
5346;DHT22;2695;49.444;11.054;2023-08-17T00:13:41;24.50;99.90
5346;DHT22;2695;49.444;11.054;2023-08-17T00:16:11;24.20;99.90
5346;DHT22;2695;49.444;11.054;2023-08-17T00:18:39;24.30;99.90
5346;DHT22;2695;49.444;11.054;2023-08-17T00:21:07;24.40;99.90
5346;DHT22;2695;49.444;11.054;2023-08-17T00:23:36;24.40;99.90
5346;DHT22;2695;49.444;11.054;2023-08-17T00:26:05;24.40;99.90
5346;DHT22;2695;49.444;11.054;2023-08-17T00:28:33;24.40;99.90
5346;DHT22;2695;49.444;11.054;2023-08-17T00:31:01;24.40;99.90
5346;DHT22;2695;49.444;11.054;2023-08-17T00:33:31;24.40;99.90
5346;DHT22;2695;49.444;11.054;2023-08-17T00:35:59;24.60;99.90
5346;DHT22;2695;49.444;11.054;2023-08-17T00:38:27;24.50;99.90
5346;DHT22;2695;49.444;11.054;2023-08-17T00:40:55;24.50;99.90
5346;DHT22;2695;49.444;11.054;2023-08-17T00:43:23;24.50;99.90
5346;DHT22;2695;49.444;11.054;2023-08-17T00:45:51;24.50;99.90
5346;DHT22;2695;49.444;11.054;2023-08-17T00:48:19;24.50;99.90
5346;DHT22;2695;49.444;11.054;2023-08-17T00:50:50;24.60;99.90
5346;DHT22;2695;49.444;11.054;2023-08-17T00:53:20;24.60;99.90
5346;DHT22;2695;49.444;11.054;2023-08-17T00:55:50;24.50;99.90
5346;DHT22;2695;49.444;11.054;2023-08-17T00:58:20;24.60;99.90
5346;DHT22;2695;49.444;11.054;2023-08-17T01:00:48;24.70;99.90
5346;DHT22;2695;49.444;11.054;2023-08-17T01:03:16;24.60;99.90
5346;DHT22;2695;49.444;11.054;2023-08-17T01:05:45;24.30;99.90
5346;DHT22;2695;49.444;11.054;2023-08-17T01:08:14;24.60;99.90
5346;DHT22;2695;49.444;11.054;2023-08-17T01:10:50;24.70;99.90
5346;DHT22;2695;49.444;11.054;2023-08-17T01:13:25;24.20;99.90
5346;DHT22;2695;49.444;11.054;2023-08-17T01:15:57;24.20;99.90
5346;DHT22;2695;49.444;11.054;2023-08-17T01:18:29;24.00;99.90
5346;DHT22;2695;49.444;11.054;2023-08-17T01:20:58;24.00;99.90
5346;DHT22;2695;49.444;11.054;2023-08-17T01:23:27;23.90;99.90
5346;DHT22;2695;49.444;11.054;2023-08-17T01:25:55;23.80;99.90
5346;DHT22;2695;49.444;11.054;2023-08-17T01:28:24;23.80;99.90
5346;DHT22;2695;49.444;11.054;2023-08-17T01:30:57;23.70;99.90
5346;DHT22;2695;49.444;11.054;2023-08-17T01:33:31;23.70;99.90
5346;DHT22;2695;49.444;11.054;2023-08-17T01:36:05;23.70;99.90
5346;DHT22;2695;49.444;11.054;2023-08-17T01:38:36;23.70;99.90
5346;DHT22;2695;49.444;11.054;2023-08-17T01:41:05;23.70;99.90
5346;DHT22;2695;49.444;11.054;2023-08-17T01:43:36;23.70;99.90
5346;DHT22;2695;49.444;11.054;2023-08-17T01:46:04;24.20;99.90
5346;DHT22;2695;49.444;11.054;2023-08-17T01:48:32;23.70;99.90
5346;DHT22;2695;49.444;11.054;2023-08-17T01:51:00;24.00;99.90
5346;DHT22;2695;49.444;11.054;2023-08-17T01:53:28;23.80;99.90
5346;DHT22;2695;49.444;11.054;2023-08-17T01:55:58;23.80;99.90
5346;DHT22;2695;49.444;11.054;2023-08-17T01:58:26;23.70;99.90
5346;DHT22;2695;49.444;11.054;2023-08-17T02:00:54;25.00;99.90
5346;DHT22;2695;49.444;11.054;2023-08-17T02:03:22;23.60;99.90
5346;DHT22;2695;49.444;11.054;2023-08-17T02:05:50;23.60;99.90
5346;DHT22;2695;49.444;11.054;2023-08-17T02:08:17;23.60;99.90
5346;DHT22;2695;49.444;11.054;2023-08-17T02:10:45;23.70;99.90
5346;DHT22;2695;49.444;11.054;2023-08-17T02:13:15;23.80;99.90
5346;DHT22;2695;49.444;11.054;2023-08-17T02:15:44;23.70;99.90
5346;DHT22;2695;49.444;11.054;2023-08-17T02:18:12;23.70;99.90
5346;DHT22;2695;49.444;11.054;2023-08-17T02:20:40;23.80;99.90
5346;DHT22;2695;49.444;11.054;2023-08-17T02:23:08;23.70;99.90
5346;DHT22;2695;49.444;11.054;2023-08-17T02:25:38;23.80;99.90
5346;DHT22;2695;49.444;11.054;2023-08-17T02:28:06;23.90;99.90
5346;DHT22;2695;49.444;11.054;2023-08-17T02:30:35;24.40;99.90
5346;DHT22;2695;49.444;11.054;2023-08-17T02:33:04;23.80;99.90
5346;DHT22;2695;49.444;11.054;2023-08-17T02:35:33;23.80;99.90
5346;DHT22;2695;49.444;11.054;2023-08-17T02:38:01;23.70;99.90
5346;DHT22;2695;49.444;11.054;2023-08-17T02:40:29;23.90;99.90
5346;DHT22;2695;49.444;11.054;2023-08-17T02:42:57;23.70;99.90
5346;DHT22;2695;49.444;11.054;2023-08-17T02:45:25;23.70;99.90
5346;DHT22;2695;49.444;11.054;2023-08-17T02:47:54;23.70;99.90
5346;DHT22;2695;49.444;11.054;2023-08-17T02:50:22;23.70;99.90
5346;DHT22;2695;49.444;11.054;2023-08-17T02:52:50;23.60;99.90
5346;DHT22;2695;49.444;11.054;2023-08-17T02:55:18;23.60;99.90
5346;DHT22;2695;49.444;11.054;2023-08-17T02:57:46;23.50;99.90
5346;DHT22;2695;49.444;11.054;2023-08-17T03:00:14;23.50;99.90
5346;DHT22;2695;49.444;11.054;2023-08-17T03:02:42;23.40;99.90
5346;DHT22;2695;49.444;11.054;2023-08-17T03:05:12;23.20;99.90
5346;DHT22;2695;49.444;11.054;2023-08-17T03:07:40;23.10;99.90
5346;DHT22;2695;49.444;11.054;2023-08-17T03:10:08;23.00;99.90
5346;DHT22;2695;49.444;11.054;2023-08-17T03:12:36;23.00;99.90
5346;DHT22;2695;49.444;11.054;2023-08-17T03:15:05;23.00;99.90
5346;DHT22;2695;49.444;11.054;2023-08-17T03:17:34;22.90;99.90
5346;DHT22;2695;49.444;11.054;2023-08-17T03:20:02;22.90;99.90
5346;DHT22;2695;49.444;11.054;2023-08-17T03:22:34;22.90;99.90
5346;DHT22;2695;49.444;11.054;2023-08-17T03:25:03;22.90;99.90
5346;DHT22;2695;49.444;11.054;2023-08-17T03:27:31;23.00;99.90
5346;DHT22;2695;49.444;11.054;2023-08-17T03:29:59;22.90;99.90
5346;DHT22;2695;49.444;11.054;2023-08-17T03:32:27;22.90;99.90
5346;DHT22;2695;49.444;11.054;2023-08-17T03:34:55;22.90;99.90
5346;DHT22;2695;49.444;11.054;2023-08-17T03:37:23;22.80;99.90
5346;DHT22;2695;49.444;11.054;2023-08-17T03:39:53;23.00;99.90
5346;DHT22;2695;49.444;11.054;2023-08-17T03:42:21;22.60;99.90
5346;DHT22;2695;49.444;11.054;2023-08-17T03:44:49;22.50;99.90
5346;DHT22;2695;49.444;11.054;2023-08-17T03:47:18;22.50;99.90
5346;DHT22;2695;49.444;11.054;2023-08-17T03:49:46;22.50;99.90
5346;DHT22;2695;49.444;11.054;2023-08-17T03:52:14;22.40;99.90
5346;DHT22;2695;49.444;11.054;2023-08-17T03:54:42;22.50;99.90
5346;DHT22;2695;49.444;11.054;2023-08-17T03:57:12;22.60;99.90
5346;DHT22;2695;49.444;11.054;2023-08-17T03:59:41;22.80;99.90
5346;DHT22;2695;49.444;11.054;2023-08-17T04:02:09;22.60;99.90
5346;DHT22;2695;49.444;11.054;2023-08-17T04:04:37;22.70;99.90
5346;DHT22;2695;49.444;11.054;2023-08-17T04:07:05;22.80;99.90
5346;DHT22;2695;49.444;11.054;2023-08-17T04:09:34;22.90;99.90
5346;DHT22;2695;49.444;11.054;2023-08-17T04:12:02;23.00;99.90
5346;DHT22;2695;49.444;11.054;2023-08-17T04:14:33;22.90;99.90
5346;DHT22;2695;49.444;11.054;2023-08-17T04:17:01;23.00;99.90
5346;DHT22;2695;49.444;11.054;2023-08-17T04:19:29;23.00;99.90
5346;DHT22;2695;49.444;11.054;2023-08-17T04:21:57;23.00;99.90
5346;DHT22;2695;49.444;11.054;2023-08-17T04:24:25;22.90;99.90
5346;DHT22;2695;49.444;11.054;2023-08-17T04:29:24;23.00;99.90
5346;DHT22;2695;49.444;11.054;2023-08-17T04:31:54;23.00;99.90
5346;DHT22;2695;49.444;11.054;2023-08-17T04:34:22;23.00;99.90
5346;DHT22;2695;49.444;11.054;2023-08-17T04:36:50;23.00;99.90
5346;DHT22;2695;49.444;11.054;2023-08-17T04:39:18;23.00;99.90
5346;DHT22;2695;49.444;11.054;2023-08-17T04:41:46;23.00;99.90
5346;DHT22;2695;49.444;11.054;2023-08-17T04:44:15;22.90;99.90
5346;DHT22;2695;49.444;11.054;2023-08-17T04:46:43;22.80;99.90
5346;DHT22;2695;49.444;11.054;2023-08-17T04:49:12;22.70;99.90
5346;DHT22;2695;49.444;11.054;2023-08-17T04:51:40;22.60;99.90
5346;DHT22;2695;49.444;11.054;2023-08-17T04:54:08;22.60;99.90
5346;DHT22;2695;49.444;11.054;2023-08-17T04:56:36;22.50;99.90
5346;DHT22;2695;49.444;11.054;2023-08-17T04:59:04;22.50;99.90
5346;DHT22;2695;49.444;11.054;2023-08-17T05:01:35;22.50;99.90
5346;DHT22;2695;49.444;11.054;2023-08-17T05:04:06;22.50;99.90
5346;DHT22;2695;49.444;11.054;2023-08-17T05:06:36;22.50;99.90
5346;DHT22;2695;49.444;11.054;2023-08-17T05:09:05;22.70;99.90
5346;DHT22;2695;49.444;11.054;2023-08-17T05:11:33;22.80;99.90
5346;DHT22;2695;49.444;11.054;2023-08-17T05:14:01;22.70;99.90
5346;DHT22;2695;49.444;11.054;2023-08-17T05:16:29;23.90;99.90
5346;DHT22;2695;49.444;11.054;2023-08-17T05:18:58;25.10;99.90
5346;DHT22;2695;49.444;11.054;2023-08-17T05:21:26;26.40;99.90
5346;DHT22;2695;49.444;11.054;2023-08-17T05:23:56;27.70;99.90
5346;DHT22;2695;49.444;11.054;2023-08-17T05:26:24;28.90;99.90
5346;DHT22;2695;49.444;11.054;2023-08-17T05:28:52;29.90;99.90
5346;DHT22;2695;49.444;11.054;2023-08-17T05:31:20;30.80;99.90
5346;DHT22;2695;49.444;11.054;2023-08-17T05:33:48;31.50;99.90
5346;DHT22;2695;49.444;11.054;2023-08-17T05:36:16;32.20;99.90
5346;DHT22;2695;49.444;11.054;2023-08-17T05:38:44;32.70;99.30
5346;DHT22;2695;49.444;11.054;2023-08-17T05:41:14;33.60;97.70
5346;DHT22;2695;49.444;11.054;2023-08-17T05:43:44;34.10;95.70
5346;DHT22;2695;49.444;11.054;2023-08-17T05:46:12;34.50;94.10
5346;DHT22;2695;49.444;11.054;2023-08-17T05:48:40;35.00;92.90
5346;DHT22;2695;49.444;11.054;2023-08-17T05:51:08;35.50;91.30
5346;DHT22;2695;49.444;11.054;2023-08-17T05:53:36;35.90;89.90
5346;DHT22;2695;49.444;11.054;2023-08-17T05:56:04;36.40;86.90
5346;DHT22;2695;49.444;11.054;2023-08-17T05:58:34;36.70;83.70
5346;DHT22;2695;49.444;11.054;2023-08-17T06:01:05;37.10;80.90
5346;DHT22;2695;49.444;11.054;2023-08-17T06:03:34;37.40;78.70
5346;DHT22;2695;49.444;11.054;2023-08-17T06:06:04;37.80;75.90
5346;DHT22;2695;49.444;11.054;2023-08-17T06:08:32;38.10;73.60
5346;DHT22;2695;49.444;11.054;2023-08-17T06:11:01;38.50;71.30
5346;DHT22;2695;49.444;11.054;2023-08-17T06:13:29;38.70;69.10
5346;DHT22;2695;49.444;11.054;2023-08-17T06:15:59;38.50;67.80
5346;DHT22;2695;49.444;11.054;2023-08-17T06:18:27;38.00;67.90
5346;DHT22;2695;49.444;11.054;2023-08-17T06:20:55;37.90;67.80
5346;DHT22;2695;49.444;11.054;2023-08-17T06:23:24;38.10;67.20
5346;DHT22;2695;49.444;11.054;2023-08-17T06:25:56;38.10;66.50
5346;DHT22;2695;49.444;11.054;2023-08-17T06:28:25;38.70;65.10
5346;DHT22;2695;49.444;11.054;2023-08-17T06:30:54;39.10;63.40
5346;DHT22;2695;49.444;11.054;2023-08-17T06:33:24;39.50;61.80
5346;DHT22;2695;49.444;11.054;2023-08-17T06:35:52;39.70;60.00
5346;DHT22;2695;49.444;11.054;2023-08-17T06:38:20;40.10;59.20
5346;DHT22;2695;49.444;11.054;2023-08-17T06:40:48;40.50;57.80
5346;DHT22;2695;49.444;11.054;2023-08-17T06:43:17;40.60;57.20
5346;DHT22;2695;49.444;11.054;2023-08-17T06:45:45;41.00;55.70
5346;DHT22;2695;49.444;11.054;2023-08-17T06:48:13;40.90;55.10
5346;DHT22;2695;49.444;11.054;2023-08-17T06:50:43;40.60;55.20
5346;DHT22;2695;49.444;11.054;2023-08-17T06:53:11;40.40;55.20
5346;DHT22;2695;49.444;11.054;2023-08-17T06:55:39;40.40;55.10
5346;DHT22;2695;49.444;11.054;2023-08-17T06:58:07;40.20;55.00
5346;DHT22;2695;49.444;11.054;2023-08-17T07:00:35;40.60;54.90
5346;DHT22;2695;49.444;11.054;2023-08-17T07:03:08;40.70;53.80
5346;DHT22;2695;49.444;11.054;2023-08-17T07:05:36;40.20;54.60
5346;DHT22;2695;49.444;11.054;2023-08-17T07:08:06;40.70;54.20
5346;DHT22;2695;49.444;11.054;2023-08-17T07:10:34;40.90;53.60
5346;DHT22;2695;49.444;11.054;2023-08-17T07:13:03;41.50;52.30
5346;DHT22;2695;49.444;11.054;2023-08-17T07:15:32;42.00;51.10
5346;DHT22;2695;49.444;11.054;2023-08-17T07:18:00;41.60;50.80
5346;DHT22;2695;49.444;11.054;2023-08-17T07:20:29;41.80;50.70
5346;DHT22;2695;49.444;11.054;2023-08-17T07:22:56;41.60;50.40
5346;DHT22;2695;49.444;11.054;2023-08-17T07:25:26;41.10;51.10
5346;DHT22;2695;49.444;11.054;2023-08-17T07:27:55;41.40;50.60
5346;DHT22;2695;49.444;11.054;2023-08-17T07:30:26;42.10;50.10
5346;DHT22;2695;49.444;11.054;2023-08-17T07:32:54;42.70;48.40
5346;DHT22;2695;49.444;11.054;2023-08-17T07:35:22;42.90;47.80
5346;DHT22;2695;49.444;11.054;2023-08-17T07:37:50;43.10;47.50
5346;DHT22;2695;49.444;11.054;2023-08-17T07:40:35;43.40;46.90
5346;DHT22;2695;49.444;11.054;2023-08-17T07:43:05;43.70;46.10
5346;DHT22;2695;49.444;11.054;2023-08-17T07:45:34;43.80;45.80
5346;DHT22;2695;49.444;11.054;2023-08-17T07:48:02;44.20;45.40
5346;DHT22;2695;49.444;11.054;2023-08-17T07:50:32;44.70;44.40
5346;DHT22;2695;49.444;11.054;2023-08-17T07:53:00;45.10;43.50
5346;DHT22;2695;49.444;11.054;2023-08-17T07:55:29;45.30;42.60
5346;DHT22;2695;49.444;11.054;2023-08-17T07:57:58;45.40;41.50
5346;DHT22;2695;49.444;11.054;2023-08-17T08:00:27;45.00;41.90
5346;DHT22;2695;49.444;11.054;2023-08-17T08:02:55;44.50;42.30
5346;DHT22;2695;49.444;11.054;2023-08-17T08:05:23;44.20;43.20
5346;DHT22;2695;49.444;11.054;2023-08-17T08:07:52;44.30;42.90
5346;DHT22;2695;49.444;11.054;2023-08-17T08:10:20;44.40;41.60
5346;DHT22;2695;49.444;11.054;2023-08-17T08:12:48;44.40;41.80
5346;DHT22;2695;49.444;11.054;2023-08-17T08:15:17;44.60;41.40
5346;DHT22;2695;49.444;11.054;2023-08-17T08:17:46;44.60;41.50
5346;DHT22;2695;49.444;11.054;2023-08-17T08:20:14;44.90;40.90
5346;DHT22;2695;49.444;11.054;2023-08-17T08:22:42;44.80;40.50
5346;DHT22;2695;49.444;11.054;2023-08-17T08:25:11;44.90;40.80
5346;DHT22;2695;49.444;11.054;2023-08-17T08:27:41;45.30;40.00
5346;DHT22;2695;49.444;11.054;2023-08-17T08:30:10;45.20;39.40
5346;DHT22;2695;49.444;11.054;2023-08-17T08:32:39;45.00;39.80
5346;DHT22;2695;49.444;11.054;2023-08-17T08:35:08;45.20;39.90
5346;DHT22;2695;49.444;11.054;2023-08-17T08:37:36;45.50;39.00
5346;DHT22;2695;49.444;11.054;2023-08-17T08:40:11;45.00;38.90
5346;DHT22;2695;49.444;11.054;2023-08-17T08:42:40;45.20;39.30
5346;DHT22;2695;49.444;11.054;2023-08-17T08:45:09;45.50;38.10
5346;DHT22;2695;49.444;11.054;2023-08-17T08:47:40;45.30;38.50
5346;DHT22;2695;49.444;11.054;2023-08-17T08:50:16;45.00;38.90
5346;DHT22;2695;49.444;11.054;2023-08-17T08:53:01;44.80;39.30
5346;DHT22;2695;49.444;11.054;2023-08-17T08:55:31;44.60;40.30
5346;DHT22;2695;49.444;11.054;2023-08-17T08:58:04;45.10;39.30
5346;DHT22;2695;49.444;11.054;2023-08-17T09:00:33;45.60;38.80
5346;DHT22;2695;49.444;11.054;2023-08-17T09:03:04;45.30;38.50
5346;DHT22;2695;49.444;11.054;2023-08-17T09:05:33;45.00;39.10
5346;DHT22;2695;49.444;11.054;2023-08-17T09:08:02;45.00;39.10
5346;DHT22;2695;49.444;11.054;2023-08-17T09:10:31;44.90;39.00
5346;DHT22;2695;49.444;11.054;2023-08-17T09:13:05;45.30;38.80
5346;DHT22;2695;49.444;11.054;2023-08-17T09:15:33;45.60;38.20
5346;DHT22;2695;49.444;11.054;2023-08-17T09:18:03;45.90;37.90
5346;DHT22;2695;49.444;11.054;2023-08-17T09:20:40;46.10;37.90
5346;DHT22;2695;49.444;11.054;2023-08-17T09:23:14;45.90;37.70
5346;DHT22;2695;49.444;11.054;2023-08-17T09:25:44;46.10;37.90
5346;DHT22;2695;49.444;11.054;2023-08-17T09:28:13;46.10;37.90
5346;DHT22;2695;49.444;11.054;2023-08-17T09:30:51;46.30;37.80
5346;DHT22;2695;49.444;11.054;2023-08-17T09:33:22;46.50;37.50
5346;DHT22;2695;49.444;11.054;2023-08-17T09:35:52;46.60;37.00
5346;DHT22;2695;49.444;11.054;2023-08-17T09:38:25;46.20;37.70
5346;DHT22;2695;49.444;11.054;2023-08-17T09:40:54;46.10;38.20
5346;DHT22;2695;49.444;11.054;2023-08-17T09:43:22;46.60;37.40
5346;DHT22;2695;49.444;11.054;2023-08-17T09:45:51;47.00;36.90
5346;DHT22;2695;49.444;11.054;2023-08-17T09:48:25;47.40;36.00
5346;DHT22;2695;49.444;11.054;2023-08-17T09:50:59;47.20;36.30
5346;DHT22;2695;49.444;11.054;2023-08-17T09:53:29;46.70;36.50
5346;DHT22;2695;49.444;11.054;2023-08-17T09:55:57;45.90;37.50
5346;DHT22;2695;49.444;11.054;2023-08-17T09:58:27;45.60;38.40
5346;DHT22;2695;49.444;11.054;2023-08-17T10:00:58;46.10;38.20
5346;DHT22;2695;49.444;11.054;2023-08-17T10:03:33;46.50;37.10
5346;DHT22;2695;49.444;11.054;2023-08-17T10:06:04;46.50;36.90
5346;DHT22;2695;49.444;11.054;2023-08-17T10:08:35;46.50;36.90
5346;DHT22;2695;49.444;11.054;2023-08-17T10:11:07;46.60;36.80
5346;DHT22;2695;49.444;11.054;2023-08-17T10:13:41;45.80;37.10
5346;DHT22;2695;49.444;11.054;2023-08-17T10:16:16;45.60;37.30
5346;DHT22;2695;49.444;11.054;2023-08-17T10:19:01;45.90;37.60
5346;DHT22;2695;49.444;11.054;2023-08-17T10:21:37;46.20;36.60
5346;DHT22;2695;49.444;11.054;2023-08-17T10:24:09;45.60;36.90
5346;DHT22;2695;49.444;11.054;2023-08-17T10:26:37;44.60;38.20
5346;DHT22;2695;49.444;11.054;2023-08-17T10:29:06;44.20;38.90
5346;DHT22;2695;49.444;11.054;2023-08-17T10:34:18;44.60;38.80
5346;DHT22;2695;49.444;11.054;2023-08-17T10:36:46;44.80;39.00
5346;DHT22;2695;49.444;11.054;2023-08-17T10:39:19;45.30;38.60
5346;DHT22;2695;49.444;11.054;2023-08-17T10:41:51;45.50;38.40
5346;DHT22;2695;49.444;11.054;2023-08-17T10:44:42;44.90;38.90
5346;DHT22;2695;49.444;11.054;2023-08-17T10:47:21;44.30;38.90
5346;DHT22;2695;49.444;11.054;2023-08-17T10:49:52;43.50;39.60
5346;DHT22;2695;49.444;11.054;2023-08-17T10:52:28;43.20;40.50
5346;DHT22;2695;49.444;11.054;2023-08-17T10:54:56;43.00;40.90
5346;DHT22;2695;49.444;11.054;2023-08-17T10:57:31;43.00;40.90
5346;DHT22;2695;49.444;11.054;2023-08-17T11:00:16;42.70;41.70
5346;DHT22;2695;49.444;11.054;2023-08-17T11:02:55;42.60;41.70
5346;DHT22;2695;49.444;11.054;2023-08-17T11:05:41;42.90;41.20
5346;DHT22;2695;49.444;11.054;2023-08-17T11:08:10;43.20;41.10
5346;DHT22;2695;49.444;11.054;2023-08-17T11:10:41;43.30;41.20
5346;DHT22;2695;49.444;11.054;2023-08-17T11:13:15;43.60;41.00
5346;DHT22;2695;49.444;11.054;2023-08-17T11:15:43;43.60;40.80
5346;DHT22;2695;49.444;11.054;2023-08-17T11:18:12;43.20;41.20
5346;DHT22;2695;49.444;11.054;2023-08-17T11:20:42;42.10;42.30
5346;DHT22;2695;49.444;11.054;2023-08-17T11:23:10;41.10;44.10
5346;DHT22;2695;49.444;11.054;2023-08-17T11:25:38;40.60;44.80
5346;DHT22;2695;49.444;11.054;2023-08-17T11:28:08;40.80;44.70
5346;DHT22;2695;49.444;11.054;2023-08-17T11:30:37;41.10;43.90
5346;DHT22;2695;49.444;11.054;2023-08-17T11:33:06;41.60;42.90
5346;DHT22;2695;49.444;11.054;2023-08-17T11:35:35;41.30;42.00
5346;DHT22;2695;49.444;11.054;2023-08-17T11:38:05;40.60;42.60
5346;DHT22;2695;49.444;11.054;2023-08-17T11:40:34;40.10;43.50
5346;DHT22;2695;49.444;11.054;2023-08-17T11:43:03;40.10;44.20
5346;DHT22;2695;49.444;11.054;2023-08-17T11:45:32;40.00;44.80
5346;DHT22;2695;49.444;11.054;2023-08-17T11:48:01;40.10;45.40
5346;DHT22;2695;49.444;11.054;2023-08-17T11:50:30;39.80;45.60
5346;DHT22;2695;49.444;11.054;2023-08-17T11:52:59;39.50;46.20
5346;DHT22;2695;49.444;11.054;2023-08-17T11:55:29;39.40;46.50
5346;DHT22;2695;49.444;11.054;2023-08-17T11:57:57;39.00;47.50
5346;DHT22;2695;49.444;11.054;2023-08-17T12:00:25;39.00;48.00
5346;DHT22;2695;49.444;11.054;2023-08-17T12:02:53;38.70;47.10
5346;DHT22;2695;49.444;11.054;2023-08-17T12:05:22;38.40;46.90
5346;DHT22;2695;49.444;11.054;2023-08-17T12:07:52;38.40;46.90
5346;DHT22;2695;49.444;11.054;2023-08-17T12:10:20;38.50;47.40
5346;DHT22;2695;49.444;11.054;2023-08-17T12:12:50;38.50;48.20
5346;DHT22;2695;49.444;11.054;2023-08-17T12:15:19;38.30;48.40
5346;DHT22;2695;49.444;11.054;2023-08-17T12:17:47;38.20;48.20
5346;DHT22;2695;49.444;11.054;2023-08-17T12:20:16;38.40;47.70
5346;DHT22;2695;49.444;11.054;2023-08-17T12:22:45;38.40;47.30
5346;DHT22;2695;49.444;11.054;2023-08-17T12:25:14;38.00;47.40
5346;DHT22;2695;49.444;11.054;2023-08-17T12:27:42;37.60;47.60
5346;DHT22;2695;49.444;11.054;2023-08-17T12:30:23;37.20;48.50
5346;DHT22;2695;49.444;11.054;2023-08-17T12:32:52;36.90;49.20
5346;DHT22;2695;49.444;11.054;2023-08-17T12:35:23;36.80;49.00
5346;DHT22;2695;49.444;11.054;2023-08-17T12:37:52;36.80;49.80
5346;DHT22;2695;49.444;11.054;2023-08-17T12:40:21;37.00;49.20
5346;DHT22;2695;49.444;11.054;2023-08-17T12:42:49;37.20;49.20
5346;DHT22;2695;49.444;11.054;2023-08-17T12:45:19;37.20;49.20
5346;DHT22;2695;49.444;11.054;2023-08-17T12:47:46;37.00;49.50
5346;DHT22;2695;49.444;11.054;2023-08-17T12:50:14;36.80;50.00
5346;DHT22;2695;49.444;11.054;2023-08-17T12:52:44;36.70;50.20
5346;DHT22;2695;49.444;11.054;2023-08-17T12:55:13;36.60;50.50
5346;DHT22;2695;49.444;11.054;2023-08-17T12:57:41;36.30;50.90
5346;DHT22;2695;49.444;11.054;2023-08-17T13:00:10;36.00;50.50
5346;DHT22;2695;49.444;11.054;2023-08-17T13:02:39;35.50;51.20
5346;DHT22;2695;49.444;11.054;2023-08-17T13:05:08;35.00;52.70
5346;DHT22;2695;49.444;11.054;2023-08-17T13:07:36;34.80;52.60
5346;DHT22;2695;49.444;11.054;2023-08-17T13:10:04;34.90;52.50
5346;DHT22;2695;49.444;11.054;2023-08-17T13:12:32;34.90;53.20
5346;DHT22;2695;49.444;11.054;2023-08-17T13:15:00;35.00;53.20
5346;DHT22;2695;49.444;11.054;2023-08-17T13:17:28;35.00;53.40
5346;DHT22;2695;49.444;11.054;2023-08-17T13:19:57;35.10;53.30
5346;DHT22;2695;49.444;11.054;2023-08-17T13:22:26;35.10;53.90
5346;DHT22;2695;49.444;11.054;2023-08-17T13:24:54;35.30;53.80
5346;DHT22;2695;49.444;11.054;2023-08-17T13:27:22;35.40;53.00
5346;DHT22;2695;49.444;11.054;2023-08-17T13:29:50;35.50;52.60
5346;DHT22;2695;49.444;11.054;2023-08-17T13:32:18;35.50;52.30
5346;DHT22;2695;49.444;11.054;2023-08-17T13:34:46;35.30;52.30
5346;DHT22;2695;49.444;11.054;2023-08-17T13:37:16;35.30;52.70
5346;DHT22;2695;49.444;11.054;2023-08-17T13:39:44;35.40;52.60
5346;DHT22;2695;49.444;11.054;2023-08-17T13:42:12;35.80;52.40
5346;DHT22;2695;49.444;11.054;2023-08-17T13:44:41;35.90;52.00
5346;DHT22;2695;49.444;11.054;2023-08-17T13:47:08;36.00;51.50
5346;DHT22;2695;49.444;11.054;2023-08-17T13:49:36;36.20;51.00
5346;DHT22;2695;49.444;11.054;2023-08-17T13:52:04;36.20;51.10
5346;DHT22;2695;49.444;11.054;2023-08-17T13:54:34;36.30;50.50
5346;DHT22;2695;49.444;11.054;2023-08-17T13:57:02;36.50;49.60
5346;DHT22;2695;49.444;11.054;2023-08-17T13:59:30;36.40;50.20
5346;DHT22;2695;49.444;11.054;2023-08-17T14:01:58;36.30;50.10
5346;DHT22;2695;49.444;11.054;2023-08-17T14:04:26;36.40;50.10
5346;DHT22;2695;49.444;11.054;2023-08-17T14:06:54;36.30;50.00
5346;DHT22;2695;49.444;11.054;2023-08-17T14:09:21;36.10;50.60
5346;DHT22;2695;49.444;11.054;2023-08-17T14:11:51;36.10;51.20
5346;DHT22;2695;49.444;11.054;2023-08-17T14:14:19;36.10;50.10
5346;DHT22;2695;49.444;11.054;2023-08-17T14:16:47;36.20;50.40
5346;DHT22;2695;49.444;11.054;2023-08-17T14:19:15;36.10;49.90
5346;DHT22;2695;49.444;11.054;2023-08-17T14:21:42;36.00;50.00
5346;DHT22;2695;49.444;11.054;2023-08-17T14:24:10;35.90;50.00
5346;DHT22;2695;49.444;11.054;2023-08-17T14:26:38;35.80;50.10
5346;DHT22;2695;49.444;11.054;2023-08-17T14:29:07;35.90;49.60
5346;DHT22;2695;49.444;11.054;2023-08-17T14:31:35;35.80;49.60
5346;DHT22;2695;49.444;11.054;2023-08-17T14:34:04;35.80;49.00
5346;DHT22;2695;49.444;11.054;2023-08-17T14:36:32;35.90;49.90
5346;DHT22;2695;49.444;11.054;2023-08-17T14:39:01;35.80;49.80
5346;DHT22;2695;49.444;11.054;2023-08-17T14:41:28;35.60;50.60
5346;DHT22;2695;49.444;11.054;2023-08-17T14:43:59;35.40;50.50
5346;DHT22;2695;49.444;11.054;2023-08-17T14:46:30;35.10;50.40
5346;DHT22;2695;49.444;11.054;2023-08-17T14:48:58;34.80;51.00
5346;DHT22;2695;49.444;11.054;2023-08-17T14:51:28;34.70;52.70
5346;DHT22;2695;49.444;11.054;2023-08-17T14:53:57;34.60;53.80
5346;DHT22;2695;49.444;11.054;2023-08-17T14:56:25;34.30;55.00
5346;DHT22;2695;49.444;11.054;2023-08-17T14:58:53;34.00;55.80
5346;DHT22;2695;49.444;11.054;2023-08-17T15:01:21;33.80;56.80
5346;DHT22;2695;49.444;11.054;2023-08-17T15:03:50;33.60;57.20
5346;DHT22;2695;49.444;11.054;2023-08-17T15:06:18;33.40;58.10
5346;DHT22;2695;49.444;11.054;2023-08-17T15:09:00;33.10;58.60
5346;DHT22;2695;49.444;11.054;2023-08-17T15:11:29;32.80;59.40
5346;DHT22;2695;49.444;11.054;2023-08-17T15:13:57;32.70;58.90
5346;DHT22;2695;49.444;11.054;2023-08-17T15:16:25;32.60;59.40
5346;DHT22;2695;49.444;11.054;2023-08-17T15:18:56;32.60;59.30
5346;DHT22;2695;49.444;11.054;2023-08-17T15:21:24;32.60;59.20
5346;DHT22;2695;49.444;11.054;2023-08-17T15:23:51;32.70;59.20
5346;DHT22;2695;49.444;11.054;2023-08-17T15:26:19;32.70;59.30
5346;DHT22;2695;49.444;11.054;2023-08-17T15:28:47;32.70;69.30
5346;DHT22;2695;49.444;11.054;2023-08-17T15:31:15;31.80;99.90
5346;DHT22;2695;49.444;11.054;2023-08-17T15:33:44;28.80;99.90
5346;DHT22;2695;49.444;11.054;2023-08-17T15:36:13;25.40;99.90
5346;DHT22;2695;49.444;11.054;2023-08-17T15:38:41;22.80;99.90
5346;DHT22;2695;49.444;11.054;2023-08-17T15:41:09;21.10;99.90
5346;DHT22;2695;49.444;11.054;2023-08-17T15:43:37;20.30;99.90
5346;DHT22;2695;49.444;11.054;2023-08-17T15:46:05;20.20;99.90
5346;DHT22;2695;49.444;11.054;2023-08-17T15:48:33;20.30;99.90
5346;DHT22;2695;49.444;11.054;2023-08-17T15:51:01;20.80;99.90
5346;DHT22;2695;49.444;11.054;2023-08-17T15:53:30;20.70;99.90
5346;DHT22;2695;49.444;11.054;2023-08-17T15:55:58;20.80;99.90
5346;DHT22;2695;49.444;11.054;2023-08-17T15:58:26;21.50;99.90
5346;DHT22;2695;49.444;11.054;2023-08-17T16:00:54;22.20;99.90
5346;DHT22;2695;49.444;11.054;2023-08-17T16:03:22;22.00;99.90